createdAt,value
2022-11-19T00:09:25.478Z,-1.75
2022-11-19T00:19:29.438Z,-1.69
2022-11-19T00:29:32.985Z,-1.59
2022-11-19T00:39:36.795Z,-1.67
2022-11-19T00:49:40.643Z,-1.76
2022-11-19T00:59:44.605Z,-1.73
2022-11-19T01:09:48.486Z,-1.81
2022-11-19T01:19:52.369Z,-1.78
2022-11-19T01:29:56.218Z,-1.87
2022-11-19T01:39:59.886Z,-1.87
2022-11-19T01:50:04.071Z,-1.79
2022-11-19T02:00:08.525Z,-1.70
2022-11-19T02:10:12.828Z,-1.60
2022-11-19T02:20:28.664Z,-1.54
2022-11-19T02:30:46.896Z,-1.48
2022-11-19T02:40:57.380Z,-1.34
2022-11-19T02:51:04.771Z,-1.28
2022-11-19T03:01:27.292Z,-1.25
2022-11-19T03:11:33.449Z,-1.20
2022-11-19T03:21:47.361Z,-1.08
2022-11-19T03:31:57.053Z,-1.21
2022-11-19T03:42:01.542Z,-1.45
2022-11-19T03:52:07.758Z,-1.50
2022-11-19T04:02:12.407Z,-1.50
2022-11-19T04:12:25.284Z,-1.57
2022-11-19T04:22:28.881Z,-1.51
2022-11-19T04:32:32.488Z,-1.56
2022-11-19T04:42:36.110Z,-1.73
2022-11-19T04:52:41.385Z,-1.86
2022-11-19T05:02:46.321Z,-1.95
2022-11-19T05:12:50.075Z,-2.05
2022-11-19T05:22:54.451Z,-2.05
2022-11-19T05:32:58.116Z,-2.03
2022-11-19T05:43:06.474Z,-1.96
2022-11-19T05:53:10.682Z,-1.89
2022-11-19T06:03:14.706Z,-1.76
2022-11-19T06:13:18.708Z,-1.80
2022-11-19T06:23:22.399Z,-1.78
2022-11-19T06:33:26.366Z,-1.80
2022-11-19T06:43:30.227Z,-1.90
2022-11-19T06:53:34.401Z,-1.81
2022-11-19T07:03:37.998Z,-1.69
2022-11-19T07:14:02.190Z,-1.69
2022-11-19T07:24:08.822Z,-1.45
2022-11-19T07:34:13.099Z,-1.24
2022-11-19T07:44:17.066Z,-1.22
2022-11-19T07:54:21.036Z,-1.01
2022-11-19T08:04:29.106Z,-0.62
2022-11-19T08:14:32.789Z,-0.55
2022-11-19T08:24:37.259Z,-0.54
2022-11-19T08:34:41.201Z,-0.39
2022-11-19T08:44:44.988Z,-0.16
2022-11-19T08:54:49.174Z,0.02
2022-11-19T09:04:53.163Z,0.10
2022-11-19T09:14:57.214Z,0.26
2022-11-19T09:25:00.981Z,0.50
2022-11-19T09:35:05.321Z,0.80
2022-11-19T09:45:27.449Z,0.86
2022-11-19T09:55:37.760Z,0.95
2022-11-19T10:06:06.806Z,0.85
2022-11-19T10:16:48.345Z,0.69
2022-11-19T10:27:07.227Z,0.71
2022-11-19T10:37:23.190Z,0.99
2022-11-19T10:47:56.839Z,1.05
2022-11-19T10:58:14.457Z,1.07
2022-11-19T11:08:18.612Z,1.26
2022-11-19T11:18:29.830Z,1.18
2022-11-19T11:28:34.625Z,1.37
2022-11-19T11:38:45.886Z,1.11
2022-11-19T11:48:49.831Z,1.01
2022-11-19T11:58:53.641Z,0.93
2022-11-19T12:08:58.083Z,1.12
2022-11-19T12:19:30.923Z,1.14
2022-11-19T12:29:38.881Z,1.29
2022-11-19T12:39:54.316Z,1.12
2022-11-19T12:50:01.341Z,0.96
2022-11-19T13:00:15.962Z,1.10
2022-11-19T13:10:43.629Z,1.11
2022-11-19T13:21:04.647Z,1.04
2022-11-19T13:31:17.411Z,0.87
2022-11-19T13:41:22.741Z,0.60
2022-11-19T13:51:40.132Z,0.39
2022-11-19T14:02:05.551Z,0.31
2022-11-19T14:12:34.379Z,0.09
2022-11-19T14:23:12.744Z,-0.17
2022-11-19T14:33:48.947Z,-0.30
2022-11-19T14:44:10.946Z,-0.46
2022-11-19T14:54:16.034Z,-0.75
2022-11-19T15:04:22.803Z,-0.90
2022-11-19T15:14:30.024Z,-1.04
2022-11-19T15:24:53.018Z,-1.20
2022-11-19T15:35:25.032Z,-1.35
2022-11-19T15:45:37.240Z,-1.41
2022-11-19T15:55:52.407Z,-1.46
2022-11-19T16:06:16.056Z,-1.58
2022-11-19T16:16:45.798Z,-1.57
2022-11-19T16:26:50.586Z,-1.47
2022-11-19T16:36:55.372Z,-1.51
2022-11-19T16:47:06.796Z,-1.55
2022-11-19T16:57:12.598Z,-1.49
2022-11-19T17:07:29.790Z,-1.46
2022-11-19T17:17:42.193Z,-1.45
2022-11-19T17:27:52.454Z,-1.41
2022-11-19T17:37:59.520Z,-1.27
2022-11-19T17:48:23.023Z,-1.24
2022-11-19T17:58:30.364Z,-1.27
2022-11-19T18:08:39.577Z,-1.35
2022-11-19T18:18:45.794Z,-1.49
2022-11-19T18:28:51.616Z,-1.67
2022-11-19T18:38:56.600Z,-1.90
2022-11-19T18:49:01.391Z,-2.17
2022-11-19T18:59:06.581Z,-2.49
2022-11-19T19:09:11.959Z,-2.71
2022-11-19T19:19:18.302Z,-2.90
2022-11-19T19:29:23.976Z,-3.26
2022-11-19T19:39:28.983Z,-3.56
2022-11-19T19:49:38.418Z,-3.59
2022-11-19T19:59:43.207Z,-3.83
2022-11-19T20:09:48.742Z,-4.18
2022-11-19T20:19:54.125Z,-4.22
2022-11-19T20:30:01.461Z,-4.37
2022-11-19T20:40:07.526Z,-4.50
2022-11-19T20:50:14.133Z,-4.76
2022-11-19T21:00:19.563Z,-4.88
2022-11-19T21:10:24.617Z,-4.97
2022-11-19T21:20:29.304Z,-5.00
2022-11-19T21:30:34.539Z,-4.99
2022-11-19T21:40:39.903Z,-4.83
2022-11-19T21:50:44.285Z,-4.80
2022-11-19T22:00:48.364Z,-4.84
2022-11-19T22:10:52.346Z,-4.78
2022-11-19T22:21:03.676Z,-4.60
2022-11-19T22:31:07.754Z,-4.49
2022-11-19T22:41:17.570Z,-4.56
2022-11-19T22:51:23.578Z,-4.67
2022-11-19T23:01:30.012Z,-4.64
2022-11-19T23:11:52.306Z,-4.61
2022-11-19T23:21:56.266Z,-4.66
2022-11-19T23:32:00.102Z,-4.61
2022-11-19T23:42:04.022Z,-4.54
2022-11-19T23:52:08.078Z,-4.48
